Terminal Aerodrome Forecast
Issued by NWS

Current Version | Previous Version | Graphics & Text | Print | Product List | Glossary On
Versions: 1 2 3 4 5 6 7 8 9 10 11 12 13 14 15 16 17 18 19
000
FTUS41 KPBZ 281600 AAB
TAFHLG
TAF AMD
KHLG 281605Z 2816/2912 23013G26KT P6SM BKN040
     FM282100 24014G28KT 4SM -SHRA BKN025
     FM290200 26010G20KT P6SM BKN035
     FM290600 27005KT P6SM SCT080=

USA.gov is the U.S. government's official web portal to all federal, state and local government web resources and services.